Time;durP1;ratioP1;P1;durP2;ratioP2;P2;SDS_P1;SDS_P2;PMS_P1;PMS_P2;Temp;Humidity;BMP_temperature;BMP_pressure;BME280_temperature;BME280_humidity;BME280_pressure;Samples;Min_cycle;Max_cycle;Signal;HPM_P1;HPM_P2
2024/01/18 00:03:32;;;;;;;0.60;0.60;;;12.20;47.00;;;;;;10355926;28;20257;-77
2024/01/18 00:08:35;;;;;;;0.50;0.50;;;12.20;46.90;;;;;;10357802;28;20225;-77
2024/01/18 00:13:40;;;;;;;1.47;0.60;;;12.20;46.90;;;;;;10360618;28;20234;-77
2024/01/18 00:18:43;;;;;;;0.60;0.50;;;12.10;47.00;;;;;;10359250;28;20909;-77
2024/01/18 00:23:46;;;;;;;0.97;0.60;;;12.10;46.70;;;;;;10359317;28;20238;-77
2024/01/18 00:28:51;;;;;;;0.60;0.60;;;12.20;46.80;;;;;;10356159;28;20720;-77
2024/01/18 00:33:57;;;;;;;0.50;0.50;;;12.20;47.10;;;;;;10356491;28;20776;-77
2024/01/18 00:39:08;;;;;;;0.70;0.60;;;12.20;46.80;;;;;;10359911;28;20238;-77
2024/01/18 00:44:13;;;;;;;0.60;0.60;;;12.20;46.80;;;;;;10358345;28;20218;-77
2024/01/18 00:49:16;;;;;;;1.20;0.60;;;12.20;47.00;;;;;;10361485;28;20240;-77
2024/01/18 00:54:19;;;;;;;0.53;0.53;;;12.20;46.70;;;;;;10358137;28;20250;-77
2024/01/18 00:59:24;;;;;;;0.50;0.50;;;12.10;46.50;;;;;;10360957;28;20230;-78
2024/01/18 01:04:27;;;;;;;0.60;0.57;;;12.20;46.80;;;;;;10359639;28;20305;-77
2024/01/18 01:09:31;;;;;;;0.50;0.50;;;12.20;46.50;;;;;;10358122;28;20238;-77
2024/01/18 01:14:36;;;;;;;0.60;0.60;;;12.20;46.40;;;;;;10355969;28;20350;-77
2024/01/18 01:19:39;;;;;;;0.50;0.50;;;12.30;46.60;;;;;;10355098;28;20318;-77
2024/01/18 01:24:43;;;;;;;0.50;0.50;;;12.30;46.30;;;;;;10353948;28;20260;-77
2024/01/18 01:29:47;;;;;;;0.40;0.40;;;12.30;46.20;;;;;;10357289;28;20312;-77
2024/01/18 01:34:50;;;;;;;0.50;0.50;;;12.30;46.50;;;;;;10355932;28;20310;-77
2024/01/18 01:39:54;;;;;;;0.50;0.50;;;12.20;46.20;;;;;;10357495;28;20253;-77
2024/01/18 01:44:59;;;;;;;0.43;0.43;;;12.20;46.20;;;;;;10353223;28;20230;-77
2024/01/18 01:50:03;;;;;;;0.43;0.43;;;12.20;46.40;;;;;;10354947;28;20219;-77
2024/01/18 01:55:07;;;;;;;0.50;0.50;;;12.20;46.20;;;;;;10360499;28;20665;-77
2024/01/18 02:00:18;;;;;;;0.47;0.47;;;12.10;46.20;;;;;;10356312;28;20337;-77
2024/01/18 02:05:22;;;;;;;0.40;0.40;;;12.10;46.40;;;;;;10358341;28;20234;-77
2024/01/18 02:10:28;;;;;;;0.40;0.40;;;12.10;46.20;;;;;;10355836;28;20232;-78
2024/01/18 02:15:35;;;;;;;0.40;0.40;;;12.00;46.30;;;;;;10356325;28;20316;-77
2024/01/18 02:20:38;;;;;;;0.50;0.50;;;12.00;46.50;;;;;;10354673;28;20226;-77
2024/01/18 02:25:46;;;;;;;0.50;0.50;;;12.00;46.20;;;;;;10361526;28;20273;-77
2024/01/18 02:30:49;;;;;;;0.40;0.40;;;12.00;46.40;;;;;;10359866;28;20753;-77
2024/01/18 02:35:54;;;;;;;0.50;0.50;;;12.00;46.30;;;;;;10364419;28;20847;-77
2024/01/18 02:40:58;;;;;;;0.40;0.40;;;11.90;46.20;;;;;;10364834;28;20226;-77
2024/01/18 02:46:01;;;;;;;0.50;0.50;;;12.00;46.30;;;;;;10360019;28;20238;-77
2024/01/18 02:51:05;;;;;;;0.40;0.40;;;11.90;46.10;;;;;;10361233;28;20305;-77
2024/01/18 02:56:10;;;;;;;0.53;0.53;;;11.90;46.30;;;;;;10363188;28;20219;-77
2024/01/18 03:01:13;;;;;;;0.47;0.47;;;11.90;46.40;;;;;;10356629;28;20222;-77
2024/01/18 03:06:16;;;;;;;0.60;0.60;;;11.90;46.10;;;;;;10361389;28;20230;-77
2024/01/18 03:11:21;;;;;;;1.20;1.10;;;11.90;46.10;;;;;;10360965;28;20231;-77
2024/01/18 03:16:24;;;;;;;1.00;0.90;;;11.90;46.20;;;;;;10362946;28;20709;-77
2024/01/18 03:21:27;;;;;;;0.50;0.50;;;11.90;46.10;;;;;;10355132;28;21036;-77
2024/01/18 03:26:32;;;;;;;0.77;0.77;;;11.90;46.10;;;;;;10362284;28;20248;-78
2024/01/18 03:31:35;;;;;;;0.80;0.80;;;11.90;46.10;;;;;;10355615;28;20237;-77
2024/01/18 03:36:39;;;;;;;0.60;0.60;;;11.90;46.00;;;;;;10359020;28;20219;-77
2024/01/18 03:41:43;;;;;;;0.50;0.50;;;11.90;45.90;;;;;;10361095;28;20236;-77
2024/01/18 03:46:47;;;;;;;0.50;0.50;;;11.90;46.00;;;;;;10363502;28;20237;-77
2024/01/18 03:51:50;;;;;;;0.43;0.43;;;11.90;45.90;;;;;;10361626;28;20226;-77
2024/01/18 03:56:54;;;;;;;0.50;0.50;;;11.80;45.80;;;;;;10360144;28;20233;-77
2024/01/18 04:01:58;;;;;;;0.60;0.60;;;11.80;45.90;;;;;;10354953;28;20222;-77
2024/01/18 04:07:01;;;;;;;0.70;0.70;;;11.80;45.80;;;;;;10360849;28;20214;-77
2024/01/18 04:12:07;;;;;;;0.60;0.60;;;11.80;45.80;;;;;;10357959;28;20976;-78
2024/01/18 04:17:12;;;;;;;0.67;0.67;;;11.70;45.80;;;;;;10357807;28;20242;-77
2024/01/18 04:22:15;;;;;;;0.70;0.70;;;11.80;45.70;;;;;;10358220;28;20222;-77
2024/01/18 04:27:19;;;;;;;1.93;0.60;;;11.70;45.70;;;;;;10357288;28;20705;-77
2024/01/18 04:32:23;;;;;;;0.50;0.50;;;11.70;45.80;;;;;;10361656;28;20727;-77
2024/01/18 04:37:26;;;;;;;0.50;0.50;;;11.80;45.80;;;;;;10359433;28;20222;-77
2024/01/18 04:42:31;;;;;;;0.50;0.50;;;11.70;45.70;;;;;;10360952;28;20724;-77
2024/01/18 04:47:34;;;;;;;0.60;0.60;;;11.80;45.80;;;;;;10356288;28;20227;-77
2024/01/18 04:52:37;;;;;;;0.50;0.50;;;11.80;45.60;;;;;;10356378;28;20238;-78
2024/01/18 04:57:43;;;;;;;0.40;0.40;;;11.80;45.50;;;;;;10355613;28;20781;-78
2024/01/18 05:02:47;;;;;;;0.40;0.40;;;11.90;45.70;;;;;;10347105;28;20233;-77
2024/01/18 05:07:50;;;;;;;0.50;0.50;;;11.80;45.40;;;;;;10357054;28;20240;-77
2024/01/18 05:12:56;;;;;;;0.60;0.60;;;11.80;45.50;;;;;;10357273;28;20237;-77
2024/01/18 05:17:59;;;;;;;0.80;0.60;;;11.80;45.50;;;;;;10359223;28;20222;-77
2024/01/18 05:23:06;;;;;;;0.77;0.60;;;11.90;45.50;;;;;;10352069;28;20226;-77
2024/01/18 05:28:11;;;;;;;0.53;0.53;;;11.90;45.60;;;;;;10351552;28;20250;-77
2024/01/18 05:33:15;;;;;;;2.40;1.00;;;11.90;45.50;;;;;;10356646;28;20230;-77
2024/01/18 05:38:18;;;;;;;1.63;1.53;;;11.90;45.40;;;;;;10361797;28;20306;-77
2024/01/18 05:43:23;;;;;;;2.70;2.50;;;11.90;45.40;;;;;;10358224;28;20335;-76
2024/01/18 05:48:26;;;;;;;1.70;1.60;;;11.90;45.40;;;;;;10355411;28;20235;-77
2024/01/18 05:53:30;;;;;;;1.83;1.63;;;11.90;45.20;;;;;;10357781;28;20259;-77
2024/01/18 05:58:35;;;;;;;1.30;1.20;;;11.90;45.30;;;;;;10359269;28;20313;-77
2024/01/18 06:03:41;;;;;;;2.30;2.10;;;11.90;45.20;;;;;;10367265;28;20320;-77
2024/01/18 06:08:45;;;;;;;1.20;1.20;;;11.90;45.10;;;;;;10369177;28;20246;-77
2024/01/18 06:13:49;;;;;;;1.83;1.73;;;11.80;44.90;;;;;;10366534;28;20758;-77
2024/01/18 06:18:53;;;;;;;1.80;1.70;;;11.90;44.90;;;;;;10368643;28;20250;-77
2024/01/18 06:23:56;;;;;;;1.83;1.70;;;11.80;44.70;;;;;;10367065;28;20237;-78
2024/01/18 06:29:03;;;;;;;1.60;1.50;;;11.80;44.60;;;;;;10361512;28;20811;-79
2024/01/18 06:34:06;;;;;;;0.80;0.80;;;11.80;44.70;;;;;;10363918;28;20222;-78
2024/01/18 06:39:10;;;;;;;0.70;0.70;;;11.70;44.60;;;;;;10366977;28;20799;-78
2024/01/18 06:44:15;;;;;;;1.70;1.60;;;11.60;44.60;;;;;;10365274;28;20233;-78
2024/01/18 06:49:18;;;;;;;2.80;2.60;;;11.60;44.40;;;;;;10365147;28;20281;-79
2024/01/18 06:54:22;;;;;;;9.57;8.67;;;11.50;44.20;;;;;;10364661;28;21375;-79
2024/01/18 06:59:26;;;;;;;2.90;2.60;;;11.50;44.30;;;;;;10356659;28;20233;-78
2024/01/18 07:04:30;;;;;;;1.87;1.70;;;11.40;44.30;;;;;;10358167;28;20692;-78
2024/01/18 07:09:33;;;;;;;1.77;1.67;;;11.40;44.50;;;;;;10364390;28;20226;-78
2024/01/18 07:14:39;;;;;;;2.10;2.00;;;11.30;44.40;;;;;;10363018;28;20288;-77
2024/01/18 07:19:42;;;;;;;1.87;1.77;;;11.30;44.50;;;;;;10338495;28;20226;-77
2024/01/18 07:24:46;;;;;;;1.90;1.50;;;11.20;44.30;;;;;;10347483;28;20237;-77
2024/01/18 07:29:51;;;;;;;1.70;1.60;;;11.20;44.30;;;;;;10350649;28;20233;-78
2024/01/18 07:34:55;;;;;;;1.50;1.40;;;11.20;44.50;;;;;;10352570;28;20237;-77
2024/01/18 07:39:59;;;;;;;1.50;1.40;;;11.20;44.50;;;;;;10348884;28;20242;-77
2024/01/18 07:45:05;;;;;;;1.70;1.60;;;11.20;44.60;;;;;;10338539;28;20238;-77
2024/01/18 07:50:09;;;;;;;2.17;1.67;;;11.10;44.60;;;;;;10349327;28;20285;-77
2024/01/18 07:55:33;;;;;;;1.50;1.40;;;11.10;44.50;;;;;;10346495;28;20233;-77
2024/01/18 08:00:38;;;;;;;1.80;1.50;;;11.10;44.60;;;;;;10347777;28;20252;-76
2024/01/18 08:05:41;;;;;;;1.87;1.77;;;11.10;44.70;;;;;;10350313;28;20288;-76
2024/01/18 08:10:45;;;;;;;2.50;2.30;;;11.00;44.70;;;;;;10346240;28;20237;-77
2024/01/18 08:15:50;;;;;;;2.50;2.30;;;11.10;44.80;;;;;;10352722;28;20242;-76
2024/01/18 08:20:54;;;;;;;1.30;1.20;;;11.10;44.70;;;;;;10355443;28;20227;-77
2024/01/18 08:25:57;;;;;;;1.53;1.30;;;11.10;44.70;;;;;;10353816;28;20226;-77
2024/01/18 08:31:01;;;;;;;1.10;1.10;;;11.10;44.70;;;;;;10345693;28;20232;-76
2024/01/18 08:36:05;;;;;;;1.40;1.30;;;11.20;44.80;;;;;;10347718;28;20314;-77
2024/01/18 08:41:10;;;;;;;1.97;1.40;;;11.20;44.70;;;;;;10346697;28;20234;-77
2024/01/18 08:46:14;;;;;;;1.13;1.10;;;11.30;44.80;;;;;;10347848;28;20655;-77
2024/01/18 08:51:18;;;;;;;2.40;2.13;;;11.30;44.80;;;;;;10349602;28;20257;-76
2024/01/18 08:56:21;;;;;;;2.60;2.40;;;11.40;44.70;;;;;;10347348;28;20744;-77
2024/01/18 09:01:34;;;;;;;2.43;1.90;;;11.40;44.70;;;;;;10350921;28;20233;-76
2024/01/18 09:06:38;;;;;;;2.60;2.23;;;11.40;44.80;;;;;;10344152;28;20233;-76
2024/01/18 09:11:41;;;;;;;3.20;2.93;;;11.50;44.90;;;;;;10348217;28;20238;-77
2024/01/18 09:16:46;;;;;;;3.37;3.07;;;11.50;45.00;;;;;;10347929;28;20657;-77
2024/01/18 09:21:49;;;;;;;2.60;2.40;;;11.60;45.10;;;;;;10351194;28;21031;-77
2024/01/18 09:26:53;;;;;;;3.03;2.83;;;11.70;45.20;;;;;;10349358;28;20230;-77
2024/01/18 09:31:57;;;;;;;3.10;2.80;;;11.80;45.30;;;;;;10354802;28;20740;-77
2024/01/18 09:37:01;;;;;;;2.20;2.00;;;11.90;45.30;;;;;;10360024;28;20712;-77
2024/01/18 09:42:14;;;;;;;0.90;0.90;;;12.00;45.40;;;;;;10365088;28;20874;-77
2024/01/18 09:47:19;;;;;;;0.60;0.60;;;12.20;45.20;;;;;;10365118;28;20241;-77
2024/01/18 09:52:22;;;;;;;0.50;0.50;;;12.40;45.00;;;;;;10366303;28;20246;-77
2024/01/18 09:57:32;;;;;;;0.57;0.57;;;12.60;45.00;;;;;;10362458;28;20222;-77
2024/01/18 10:02:38;;;;;;;0.50;0.50;;;12.80;44.50;;;;;;10360067;28;20226;-77
2024/01/18 10:07:41;;;;;;;0.70;0.60;;;13.00;44.40;;;;;;10361869;28;20226;-77
2024/01/18 10:12:47;;;;;;;0.77;0.60;;;13.10;44.30;;;;;;10362031;28;20260;-77
2024/01/18 10:17:52;;;;;;;0.67;0.57;;;13.20;44.40;;;;;;10353640;28;20640;-78
2024/01/18 10:22:58;;;;;;;0.53;0.53;;;13.30;44.30;;;;;;10352414;28;20227;-76
2024/01/18 10:28:05;;;;;;;0.50;0.50;;;13.30;44.20;;;;;;10347859;28;20968;-76
2024/01/18 10:33:12;;;;;;;0.70;0.70;;;13.30;44.40;;;;;;10343402;28;20230;-77
2024/01/18 10:38:15;;;;;;;0.80;0.80;;;13.30;44.40;;;;;;10352221;28;20720;-77
2024/01/18 10:43:19;;;;;;;0.90;0.90;;;13.30;44.30;;;;;;10351949;28;20334;-78
2024/01/18 10:48:24;;;;;;;0.70;0.70;;;13.40;44.40;;;;;;10355989;28;20913;-77
2024/01/18 10:53:31;;;;;;;0.80;0.77;;;13.40;43.70;;;;;;10353129;28;20238;-77
2024/01/18 10:58:34;;;;;;;0.70;0.70;;;13.50;44.00;;;;;;10358933;28;20230;-77
2024/01/18 11:03:39;;;;;;;0.70;0.70;;;13.60;44.00;;;;;;10359275;28;20236;-77
2024/01/18 11:08:44;;;;;;;1.33;1.23;;;13.70;43.80;;;;;;10362834;28;20227;-77
2024/01/18 11:13:47;;;;;;;1.30;1.30;;;13.80;43.70;;;;;;10358736;28;20333;-78
2024/01/18 11:18:52;;;;;;;2.10;1.90;;;14.00;43.70;;;;;;10359100;28;20222;-77
2024/01/18 11:23:56;;;;;;;1.50;1.40;;;14.10;43.60;;;;;;10360103;28;20226;-76
2024/01/18 11:29:17;;;;;;;1.67;1.50;;;14.20;43.60;;;;;;10355308;28;20313;-77
2024/01/18 11:34:31;;;;;;;1.20;1.10;;;14.30;43.20;;;;;;10361265;28;20720;-77
2024/01/18 11:39:56;;;;;;;0.80;0.80;;;14.40;43.10;;;;;;10351353;28;20647;-77
2024/01/18 11:45:01;;;;;;;0.70;0.70;;;14.50;43.20;;;;;;10354672;28;20229;-77
2024/01/18 11:50:10;;;;;;;0.80;0.80;;;14.60;43.20;;;;;;10344819;28;20228;-77
2024/01/18 11:55:16;;;;;;;0.70;0.70;;;14.80;42.60;;;;;;10349670;28;20226;-77
2024/01/18 12:00:20;;;;;;;0.70;0.70;;;14.90;42.60;;;;;;10356189;28;20250;-76
2024/01/18 12:05:26;;;;;;;0.53;0.53;;;14.90;42.30;;;;;;10358067;28;20235;-77
2024/01/18 12:10:31;;;;;;;0.70;0.70;;;15.00;41.80;;;;;;10352773;28;20704;-75
2024/01/18 12:15:34;;;;;;;0.60;0.60;;;15.00;41.90;;;;;;10357721;28;20252;-76
2024/01/18 12:20:43;;;;;;;0.53;0.53;;;14.90;41.70;;;;;;10348039;28;20246;-76
2024/01/18 12:25:48;;;;;;;0.50;0.50;;;14.90;41.10;;;;;;10355569;28;20321;-76
2024/01/18 12:30:51;;;;;;;0.60;0.60;;;15.00;41.90;;;;;;10353898;28;20222;-78
2024/01/18 12:35:56;;;;;;;1.23;0.60;;;15.00;41.70;;;;;;10359050;28;20273;-77
2024/01/18 12:41:01;;;;;;;1.80;0.50;;;14.90;41.10;;;;;;10350262;28;20713;-77
2024/01/18 12:46:05;;;;;;;0.50;0.50;;;15.00;41.50;;;;;;10350104;28;20222;-77
2024/01/18 12:51:09;;;;;;;0.70;0.70;;;14.90;41.10;;;;;;10345774;28;20230;-76
2024/01/18 12:56:15;;;;;;;3.90;3.33;;;14.90;40.80;;;;;;10346411;28;20218;-76
2024/01/18 13:01:29;;;;;;;3.67;3.27;;;14.90;41.30;;;;;;10351413;28;20231;-76
2024/01/18 13:06:35;;;;;;;1.93;1.83;;;14.90;39.30;;;;;;10341877;28;20313;-75
2024/01/18 13:11:50;;;;;;;1.80;1.70;;;14.90;40.80;;;;;;10347321;28;22187;-75
2024/01/18 13:16:53;;;;;;;1.20;1.20;;;14.80;41.20;;;;;;10346980;28;20219;-77
2024/01/18 13:21:58;;;;;;;0.70;0.70;;;14.80;41.40;;;;;;10354413;28;20700;-76
2024/01/18 13:27:04;;;;;;;1.00;1.00;;;14.70;40.70;;;;;;10352873;28;20226;-77
2024/01/18 13:32:08;;;;;;;0.67;0.67;;;14.40;38.30;;;;;;10344561;28;20217;-75
2024/01/18 13:37:12;;;;;;;0.77;0.70;;;13.80;37.20;;;;;;10351156;28;20237;-78
2024/01/18 13:42:20;;;;;;;0.70;0.70;;;12.90;35.90;;;;;;10356315;28;20233;-74
2024/01/18 13:47:23;;;;;;;0.60;0.60;;;11.90;36.20;;;;;;10350715;28;20237;-76
2024/01/18 13:52:29;;;;;;;0.53;0.50;;;11.00;37.20;;;;;;10353421;28;20230;-76
2024/01/18 13:57:32;;;;;;;0.60;0.60;;;10.30;38.30;;;;;;10346469;28;20672;-77
2024/01/18 14:02:36;;;;;;;0.60;0.60;;;9.90;40.20;;;;;;10354379;28;20852;-76
2024/01/18 14:07:40;;;;;;;0.60;0.60;;;9.60;40.50;;;;;;10349225;28;20230;-76
2024/01/18 14:12:44;;;;;;;0.77;0.77;;;9.30;40.70;;;;;;10343707;28;20330;-77
2024/01/18 14:17:47;;;;;;;0.80;0.80;;;9.10;41.00;;;;;;10355724;28;20231;-77
2024/01/18 14:22:52;;;;;;;1.13;0.90;;;8.90;41.30;;;;;;10363323;28;20234;-77
2024/01/18 14:27:55;;;;;;;0.87;0.87;;;8.70;41.70;;;;;;10360612;28;20289;-79
2024/01/18 14:33:01;;;;;;;0.70;0.70;;;8.50;41.70;;;;;;10361175;28;20234;-78
2024/01/18 14:38:06;;;;;;;0.90;0.90;;;8.30;41.70;;;;;;10361307;28;20218;-78
2024/01/18 14:43:09;;;;;;;1.00;0.90;;;8.00;42.00;;;;;;10366739;28;20318;-76
2024/01/18 14:48:16;;;;;;;1.03;1.03;;;7.80;42.30;;;;;;10368108;28;20873;-75
2024/01/18 14:53:21;;;;;;;1.10;1.00;;;7.60;42.30;;;;;;10366970;28;20226;-76
2024/01/18 14:58:25;;;;;;;0.90;0.90;;;7.40;43.40;;;;;;10363128;28;20226;-78
2024/01/18 15:03:28;;;;;;;1.20;1.20;;;7.20;42.70;;;;;;10361885;28;20238;-76
2024/01/18 15:08:32;;;;;;;1.30;1.30;;;7.10;42.60;;;;;;10363540;28;20219;-75
2024/01/18 15:13:36;;;;;;;1.97;1.37;;;6.90;42.70;;;;;;10346175;28;20230;-77
2024/01/18 15:18:39;;;;;;;3.50;3.20;;;6.70;42.80;;;;;;10359785;28;20322;-77
2024/01/18 15:23:44;;;;;;;2.20;2.10;;;6.60;43.10;;;;;;10359931;28;20719;-80
2024/01/18 15:28:47;;;;;;;2.50;2.40;;;6.50;44.30;;;;;;10355793;28;20601;-79
2024/01/18 15:33:50;;;;;;;2.07;1.97;;;6.50;43.10;;;;;;10358334;28;20245;-77
2024/01/18 15:38:55;;;;;;;2.33;2.10;;;6.40;42.80;;;;;;10359802;28;20230;-78
2024/01/18 15:43:59;;;;;;;2.70;2.50;;;6.30;42.60;;;;;;10355781;28;20266;-77
2024/01/18 15:49:03;;;;;;;2.83;2.23;;;6.20;42.30;;;;;;10357615;28;20959;-76
2024/01/18 15:54:08;;;;;;;2.77;2.57;;;6.00;42.50;;;;;;10354525;28;20238;-75
2024/01/18 15:59:12;;;;;;;2.10;2.00;;;5.90;42.90;;;;;;10362081;28;20768;-75
2024/01/18 16:04:15;;;;;;;2.30;2.20;;;5.80;42.70;;;;;;10366599;28;20727;-74
2024/01/18 16:09:20;;;;;;;2.90;2.70;;;5.70;42.70;;;;;;10366392;28;20233;-76
2024/01/18 16:14:23;;;;;;;2.90;2.70;;;5.60;42.80;;;;;;10365445;28;20234;-75
2024/01/18 16:19:26;;;;;;;3.17;2.97;;;5.60;42.80;;;;;;10365656;28;20229;-75
2024/01/18 16:24:31;;;;;;;3.17;2.97;;;5.60;42.70;;;;;;10351162;28;20258;-78
2024/01/18 16:29:34;;;;;;;3.80;3.50;;;5.50;42.60;;;;;;10352379;28;20775;-78
2024/01/18 16:34:53;;;;;;;3.97;3.67;;;5.40;42.50;;;;;;10352316;28;20316;-77
2024/01/18 16:39:58;;;;;;;4.47;4.07;;;5.40;42.50;;;;;;10361049;28;20288;-76
2024/01/18 16:45:02;;;;;;;4.40;4.10;;;5.30;42.40;;;;;;10361990;28;20230;-78
2024/01/18 16:50:07;;;;;;;5.03;4.63;;;5.20;42.30;;;;;;10352526;28;20259;-79
2024/01/18 16:55:12;;;;;;;5.30;4.90;;;5.10;41.90;;;;;;10361606;28;20238;-76
2024/01/18 17:00:15;;;;;;;5.50;5.00;;;5.00;42.20;;;;;;10361954;28;20293;-77
2024/01/18 17:05:19;;;;;;;5.80;5.20;;;4.90;42.40;;;;;;10366047;28;20222;-78
2024/01/18 17:10:23;;;;;;;5.17;4.70;;;4.80;42.50;;;;;;10361173;28;20236;-78
2024/01/18 17:15:27;;;;;;;5.43;5.03;;;4.80;42.60;;;;;;10355921;28;20226;-79
2024/01/18 17:20:30;;;;;;;5.03;4.63;;;4.70;42.50;;;;;;10356210;28;20251;-79
2024/01/18 17:25:34;;;;;;;5.30;4.90;;;4.60;42.40;;;;;;10350472;28;20595;-79
2024/01/18 17:30:39;;;;;;;4.77;4.37;;;4.60;42.40;;;;;;10350524;28;20719;-79
2024/01/18 17:35:42;;;;;;;5.40;4.90;;;4.60;42.40;;;;;;10357433;28;20234;-79
2024/01/18 17:40:47;;;;;;;5.13;4.73;;;4.60;42.40;;;;;;10357638;28;20285;-78
2024/01/18 17:45:50;;;;;;;5.00;4.60;;;4.60;42.40;;;;;;10362229;28;20673;-76
2024/01/18 17:50:53;;;;;;;5.20;4.80;;;4.50;42.30;;;;;;10360053;28;20238;-79
2024/01/18 17:56:00;;;;;;;5.07;4.57;;;4.50;42.30;;;;;;10356913;28;20744;-78
2024/01/18 18:01:05;;;;;;;4.80;4.40;;;4.50;42.30;;;;;;10365112;28;20741;-79
2024/01/18 18:06:09;;;;;;;4.90;4.50;;;4.50;42.30;;;;;;10362259;28;20242;-79
2024/01/18 18:11:15;;;;;;;5.50;5.00;;;4.50;42.40;;;;;;10363343;28;20230;-79
2024/01/18 18:16:19;;;;;;;5.60;5.10;;;4.40;42.30;;;;;;10364936;28;20245;-79
2024/01/18 18:21:23;;;;;;;5.50;5.00;;;4.40;42.20;;;;;;10361990;28;20246;-77
2024/01/18 18:26:28;;;;;;;4.93;4.47;;;4.40;42.20;;;;;;10363895;28;20226;-77
2024/01/18 18:31:31;;;;;;;5.13;4.73;;;4.40;42.30;;;;;;10367854;28;20233;-76
2024/01/18 18:36:35;;;;;;;6.27;5.30;;;4.40;42.20;;;;;;10361598;28;20721;-77
2024/01/18 18:41:39;;;;;;;5.50;5.00;;;4.40;42.20;;;;;;10372155;28;20313;-79
2024/01/18 18:46:43;;;;;;;5.20;4.60;;;4.40;42.20;;;;;;10363572;28;20230;-81
2024/01/18 18:51:47;;;;;;;4.90;4.50;;;4.40;42.20;;;;;;10366756;28;20261;-79
2024/01/18 18:56:51;;;;;;;5.10;4.70;;;4.40;42.20;;;;;;10365095;28;20313;-79
2024/01/18 19:01:54;;;;;;;5.17;4.67;;;4.30;42.20;;;;;;10362075;28;20238;-79
2024/01/18 19:06:58;;;;;;;5.23;4.73;;;4.40;42.20;;;;;;10360421;28;20258;-78
2024/01/18 19:12:04;;;;;;;5.23;4.83;;;4.30;42.00;;;;;;10359996;28;20226;-78
2024/01/18 19:17:08;;;;;;;5.33;4.90;;;4.30;42.20;;;;;;10364236;28;20258;-79
2024/01/18 19:22:11;;;;;;;5.03;4.63;;;4.30;42.20;;;;;;10360534;28;20253;-79
2024/01/18 19:27:15;;;;;;;5.27;4.77;;;4.20;42.00;;;;;;10363647;28;20253;-76
2024/01/18 19:32:18;;;;;;;4.33;4.03;;;4.30;42.20;;;;;;10358505;28;20313;-78
2024/01/18 19:37:22;;;;;;;5.03;4.60;;;4.30;41.80;;;;;;10364463;28;20234;-76
2024/01/18 19:42:28;;;;;;;5.20;4.63;;;4.30;41.50;;;;;;10362637;28;20233;-76
2024/01/18 19:47:31;;;;;;;4.80;4.40;;;4.30;41.50;;;;;;10363418;28;20310;-77
2024/01/18 19:52:36;;;;;;;5.00;4.60;;;4.30;41.90;;;;;;10362548;28;20230;-77
2024/01/18 19:57:41;;;;;;;4.60;4.20;;;4.30;41.50;;;;;;10362672;28;20334;-77
2024/01/18 20:02:47;;;;;;;5.07;4.67;;;4.40;41.40;;;;;;10360115;28;20232;-77
2024/01/18 20:07:51;;;;;;;4.90;4.50;;;4.40;41.40;;;;;;10360319;28;20230;-78
2024/01/18 20:12:55;;;;;;;4.93;4.43;;;4.40;41.50;;;;;;10359803;28;20859;-79
2024/01/18 20:17:59;;;;;;;4.47;4.07;;;4.40;41.50;;;;;;10361165;28;20246;-79
2024/01/18 20:23:02;;;;;;;5.53;4.50;;;4.30;41.40;;;;;;10360073;28;20313;-78
2024/01/18 20:28:07;;;;;;;4.80;4.40;;;4.30;41.20;;;;;;10358047;28;20234;-78
2024/01/18 20:33:11;;;;;;;4.97;4.50;;;4.30;41.10;;;;;;10359207;28;20234;-78
2024/01/18 20:38:14;;;;;;;4.63;3.93;;;4.30;41.00;;;;;;10362487;28;20230;-78
2024/01/18 20:43:19;;;;;;;4.50;4.10;;;4.30;41.10;;;;;;10359823;28;20241;-78
2024/01/18 20:48:23;;;;;;;6.60;4.07;;;4.30;41.10;;;;;;10362959;28;20281;-78
2024/01/18 20:53:28;;;;;;;4.60;4.13;;;4.30;41.10;;;;;;10361321;28;20281;-77
2024/01/18 20:58:33;;;;;;;4.30;3.90;;;4.30;40.90;;;;;;10362197;28;20807;-80
2024/01/18 21:03:36;;;;;;;4.10;3.80;;;4.30;41.00;;;;;;10355837;28;20229;-76
2024/01/18 21:08:46;;;;;;;4.30;3.83;;;4.30;40.90;;;;;;10361055;28;20230;-77
2024/01/18 21:13:51;;;;;;;4.47;3.57;;;4.30;40.60;;;;;;10360064;28;20230;-77
2024/01/18 21:18:54;;;;;;;3.87;3.50;;;4.40;40.80;;;;;;10351081;28;20226;-77
2024/01/18 21:24:02;;;;;;;3.63;3.33;;;4.40;41.00;;;;;;10354556;28;20253;-79
2024/01/18 21:29:07;;;;;;;3.73;3.43;;;4.40;40.60;;;;;;10358311;28;20230;-77
2024/01/18 21:34:10;;;;;;;4.17;3.77;;;4.50;40.70;;;;;;10361904;28;20732;-78
2024/01/18 21:39:14;;;;;;;4.00;3.57;;;4.40;40.70;;;;;;10360830;28;20226;-77
2024/01/18 21:44:19;;;;;;;4.30;3.73;;;4.50;40.80;;;;;;10366915;28;20222;-77
2024/01/18 21:49:23;;;;;;;4.03;3.63;;;4.50;40.70;;;;;;10363944;28;21175;-77
2024/01/18 21:54:30;;;;;;;5.03;3.70;;;4.50;40.50;;;;;;10361139;28;20226;-77
2024/01/18 21:59:35;;;;;;;4.03;3.23;;;4.50;40.40;;;;;;10363003;28;20317;-77
2024/01/18 22:04:45;;;;;;;3.70;3.30;;;4.40;40.50;;;;;;10358753;28;20309;-77
2024/01/18 22:09:48;;;;;;;3.13;2.83;;;4.40;40.50;;;;;;10360203;28;20225;-78
2024/01/18 22:14:53;;;;;;;3.80;3.20;;;4.40;40.60;;;;;;10356096;28;20253;-77
2024/01/18 22:19:56;;;;;;;4.27;3.00;;;4.40;40.60;;;;;;10355644;28;20230;-77
2024/01/18 22:25:09;;;;;;;3.47;3.10;;;4.40;40.60;;;;;;10358962;28;20306;-77
2024/01/18 22:30:14;;;;;;;3.10;2.80;;;4.40;40.30;;;;;;10358645;28;20223;-77
2024/01/18 22:35:17;;;;;;;3.10;2.90;;;4.40;40.30;;;;;;10358986;28;20226;-77
2024/01/18 22:40:21;;;;;;;3.80;3.13;;;4.40;40.40;;;;;;10357637;28;20740;-77
2024/01/18 22:45:25;;;;;;;3.17;2.87;;;4.40;40.30;;;;;;10359702;28;20332;-77
2024/01/18 22:50:29;;;;;;;2.97;2.73;;;4.40;40.40;;;;;;10363801;28;20244;-77
2024/01/18 22:55:34;;;;;;;2.90;2.70;;;4.40;40.50;;;;;;10357789;28;20234;-77
2024/01/18 23:00:39;;;;;;;3.63;2.70;;;4.50;40.30;;;;;;10366540;28;20233;-77
2024/01/18 23:05:42;;;;;;;4.20;3.07;;;4.50;40.20;;;;;;10368861;28;20725;-77
2024/01/18 23:10:46;;;;;;;2.93;2.70;;;4.50;40.40;;;;;;10368602;28;20333;-77
2024/01/18 23:15:50;;;;;;;4.73;3.20;;;4.50;40.30;;;;;;10368060;28;20234;-77
2024/01/18 23:20:53;;;;;;;3.90;3.03;;;4.50;40.30;;;;;;10368432;28;20449;-77
2024/01/18 23:25:57;;;;;;;4.97;2.80;;;4.50;40.30;;;;;;10365664;28;20230;-77
2024/01/18 23:31:02;;;;;;;4.53;3.03;;;4.50;40.20;;;;;;10371039;28;20225;-77
2024/01/18 23:36:06;;;;;;;3.30;2.77;;;4.50;40.20;;;;;;10361649;28;20237;-77
2024/01/18 23:41:09;;;;;;;3.60;2.80;;;4.40;40.10;;;;;;10358980;28;20274;-77
2024/01/18 23:46:14;;;;;;;2.90;2.50;;;4.40;40.20;;;;;;10367065;28;20246;-77
2024/01/18 23:51:17;;;;;;;4.57;3.00;;;4.40;40.20;;;;;;10366692;28;20591;-77
2024/01/18 23:56:20;;;;;;;3.00;2.80;;;4.40;40.10;;;;;;10366296;28;20328;-77
